PST,Max TemperatureF,Mean TemperatureF,Min TemperatureF,Max Dew PointF,MeanDew PointF,Min DewpointF,Max Humidity, Mean Humidity, Min Humidity, Max Sea Level PressureIn, Mean Sea Level PressureIn, Min Sea Level PressureIn, Max VisibilityMiles, Mean VisibilityMiles, Min VisibilityMiles, Max Wind SpeedMPH, Mean Wind SpeedMPH, Max Gust SpeedMPH,PrecipitationIn, CloudCover, Events, WindDirDegrees
2011-11-1,52,41,30,46,34,28,100,95,49,30.61,30.52,30.39,10,4,0,7,2,,0.00,1,Fog,126
2011-11-2,57,42,26,46,33,25,100,94,37,30.37,30.04,29.82,10,4,0,26,4,36,0.43,3,Fog-Rain,143
2011-11-3,51,42,33,42,36,32,100,93,62,29.91,29.89,29.86,10,7,0,8,4,,0.01,4,Fog-Rain,168
2011-11-4,45,36,28,39,32,28,100,97,76,29.99,29.93,29.90,10,4,0,6,0,,0.00,3,Fog,119
2011-11-5,48,38,28,37,32,28,100,92,59,29.90,29.84,29.79,10,6,1,6,1,,0.00,4,,107
2011-11-6,49,36,24,36,28,24,100,92,57,30.19,29.94,29.86,10,4,1,5,0,,0.00,1,,321
2011-11-7,50,41,32,45,40,32,99,89,74,30.26,30.23,30.20,10,10,9,13,4,,0.00,7,Rain,188
2011-11-8,55,44,34,43,40,34,100,86,55,30.27,30.26,30.23,10,10,7,9,3,,0.00,5,Rain,142
2011-11-9,58,48,37,50,42,37,100,96,71,30.27,30.20,30.15,10,5,0,7,1,,0.01,3,Fog-Rain,106
2011-11-10,60,45,30,42,34,30,100,97,48,30.15,30.11,29.93,10,2,0,5,1,,0.00,0,Fog,139
2011-11-11,50,39,28,45,37,28,100,87,62,29.91,29.68,29.53,10,8,1,22,6,29,0.19,5,Rain,201
2011-11-12,48,38,28,46,36,28,100,96,79,29.89,29.78,29.62,10,6,0,23,5,32,0.11,4,Fog-Rain,183
2011-11-13,48,46,43,45,44,38,96,91,77,29.93,29.89,29.74,10,9,4,18,13,25,0.14,7,Rain,201
2011-11-14,47,40,32,45,39,30,100,87,60,30.17,29.98,29.89,10,10,10,17,13,22,0.01,3,Rain,201
2011-11-15,47,36,26,37,31,27,100,89,61,30.32,30.27,30.18,10,8,2,7,2,,0.00,2,,235
2011-11-16,52,40,27,51,44,27,100,94,84,30.26,29.79,29.61,10,9,2,25,7,38,0.36,7,Rain,190
2011-11-17,48,40,33,43,37,33,100,91,76,29.90,29.75,29.62,10,10,5,23,14,33,0.38,6,Rain-Snow,193
2011-11-18,41,36,30,36,33,30,100,93,75,29.76,29.66,29.60,10,10,4,12,6,,0.00,6,Rain,217
2011-11-19,42,34,25,35,29,25,100,96,61,29.95,29.89,29.75,10,3,0,8,1,,0.02,2,Fog-Rain,106
2011-11-20,37,30,23,35,25,21,100,95,69,29.98,29.94,29.82,10,2,0,5,0,,0.00,0,Fog,137
2011-11-21,48,40,31,45,41,31,100,89,79,29.81,29.69,29.56,10,9,4,20,9,25,0.24,7,Rain,171
2011-11-22,54,48,42,52,45,43,100,95,76,29.70,29.54,29.43,10,7,1,23,13,40,1.99,7,Rain,167
2011-11-23,54,43,31,52,39,32,100,97,87,29.87,29.72,29.39,10,6,1,21,10,28,0.69,3,Rain,175
2011-11-24,45,40,34,41,39,33,100,91,76,29.92,29.73,29.57,10,9,3,20,10,29,0.45,7,Rain,189
2011-11-25,48,41,34,38,36,32,95,84,54,30.42,30.26,29.99,10,10,10,16,10,25,0.00,3,Rain,186
2011-11-26,49,44,38,46,41,36,100,95,84,30.38,30.26,30.12,10,7,1,6,0,,0.02,6,Rain,327
2011-11-27,59,47,35,50,44,36,100,92,45,30.39,30.18,29.96,10,7,1,23,9,31,0.42,6,Rain,195
2011-11-28,46,38,30,41,34,30,100,97,75,30.53,30.46,30.39,10,2,0,8,2,,0.00,4,Fog,164
2011-11-29,44,38,32,42,36,32,100,97,81,30.44,30.35,30.18,10,3,0,13,2,,0.06,6,Fog-Rain,167
2011-11-30,44,37,27,43,37,27,100,93,81,30.82,30.62,30.24,10,8,2,10,4,,0.00,4,Rain,63